Time;durP1;ratioP1;P1;durP2;ratioP2;P2;SDS_P1;SDS_P2;PMS_P1;PMS_P2;Temp;Humidity;BMP_temperature;BMP_pressure;BME280_temperature;BME280_humidity;BME280_pressure;Samples;Min_cycle;Max_cycle;Signal;HPM_P1;HPM_P2
2023/10/20 00:01:11;;;;;;;1.23;1.23;;;7.60;99.90;;;;;;5052999;28;20047;-66
2023/10/20 00:03:37;;;;;;;2.22;1.27;;;7.70;99.90;;;;;;5067182;28;20497;-66
2023/10/20 00:06:04;;;;;;;1.60;1.30;;;7.80;99.90;;;;;;5070447;28;20124;-66
2023/10/20 00:08:31;;;;;;;1.20;1.10;;;7.80;99.90;;;;;;5054402;28;20049;-66
2023/10/20 00:11:05;;;;;;;2.28;1.27;;;7.70;99.90;;;;;;5058234;28;20033;-66
2023/10/20 00:13:33;;;;;;;0.93;0.93;;;7.70;99.90;;;;;;5057488;28;20394;-66
2023/10/20 00:15:59;;;;;;;1.35;1.25;;;7.80;99.90;;;;;;5070324;28;20052;-66
2023/10/20 00:18:24;;;;;;;1.38;1.27;;;7.70;99.90;;;;;;5050994;28;20048;-66
2023/10/20 00:20:50;;;;;;;0.90;0.90;;;7.80;99.90;;;;;;5035486;28;20088;-66
2023/10/20 00:23:16;;;;;;;1.20;1.20;;;7.70;99.90;;;;;;5067327;28;20093;-66
2023/10/20 00:25:42;;;;;;;1.17;1.17;;;7.80;99.90;;;;;;5068747;28;20055;-66
2023/10/20 00:28:11;;;;;;;1.00;1.00;;;7.70;99.90;;;;;;5057565;28;20639;-66
2023/10/20 00:30:39;;;;;;;1.20;1.15;;;7.70;99.90;;;;;;5048717;28;20498;-66
2023/10/20 00:33:05;;;;;;;4.97;0.95;;;7.70;99.90;;;;;;5050840;28;20371;-75
2023/10/20 00:35:31;;;;;;;2.30;1.17;;;7.80;99.90;;;;;;5055274;28;21029;-66
2023/10/20 00:37:58;;;;;;;4.60;1.20;;;7.80;99.90;;;;;;5056559;28;20041;-66
2023/10/20 00:40:24;;;;;;;1.27;1.27;;;7.70;99.90;;;;;;5048190;28;20104;-65
2023/10/20 00:42:50;;;;;;;2.22;1.42;;;7.70;99.90;;;;;;5047832;28;20111;-66
2023/10/20 00:45:17;;;;;;;1.25;1.20;;;7.80;99.90;;;;;;5049062;28;20866;-66
2023/10/20 00:47:46;;;;;;;1.15;1.15;;;7.80;99.90;;;;;;5047788;28;20061;-66
2023/10/20 00:50:13;;;;;;;1.70;1.60;;;7.70;99.90;;;;;;5049670;28;20055;-66
2023/10/20 00:52:45;;;;;;;1.65;1.40;;;7.80;99.90;;;;;;5047382;28;20033;-66
2023/10/20 00:55:13;;;;;;;1.80;1.67;;;7.80;99.90;;;;;;5049444;28;20110;-66
2023/10/20 00:57:40;;;;;;;1.60;1.23;;;7.80;99.90;;;;;;5030272;28;20132;-65
2023/10/20 01:00:09;;;;;;;1.48;1.38;;;7.80;99.90;;;;;;5048189;28;20041;-66
2023/10/20 01:02:36;;;;;;;4.22;1.80;;;7.80;99.90;;;;;;5048031;28;20195;-66
2023/10/20 01:05:06;;;;;;;1.63;1.52;;;7.80;99.90;;;;;;5029886;28;20124;-66
2023/10/20 01:07:33;;;;;;;2.38;2.17;;;7.80;99.90;;;;;;5048004;28;20076;-66
2023/10/20 01:10:06;;;;;;;2.33;2.13;;;7.80;99.90;;;;;;5050789;28;20041;-65
2023/10/20 01:12:32;;;;;;;4.50;2.50;;;7.80;99.90;;;;;;5065242;28;20508;-66
2023/10/20 01:14:59;;;;;;;2.33;2.15;;;7.80;99.90;;;;;;5068689;28;20087;-66
2023/10/20 01:17:26;;;;;;;7.00;2.65;;;7.80;99.90;;;;;;5058564;28;20068;-66
2023/10/20 01:19:52;;;;;;;6.18;3.08;;;7.90;99.90;;;;;;5060040;28;20391;-74
2023/10/20 01:22:18;;;;;;;3.55;3.05;;;7.80;99.90;;;;;;5054090;28;20044;-66
2023/10/20 01:24:43;;;;;;;5.72;3.15;;;7.80;99.90;;;;;;5062943;28;20076;-66
2023/10/20 01:27:09;;;;;;;3.47;2.90;;;7.80;99.90;;;;;;5055542;28;20573;-65
2023/10/20 01:29:35;;;;;;;4.28;3.30;;;7.80;99.90;;;;;;5033483;28;20106;-67
2023/10/20 01:32:00;;;;;;;5.90;3.38;;;7.90;99.90;;;;;;5048664;28;20054;-66
2023/10/20 01:34:26;;;;;;;8.10;3.60;;;7.80;99.90;;;;;;5067922;28;20063;-66
2023/10/20 01:36:52;;;;;;;7.68;3.75;;;7.80;99.90;;;;;;5068991;28;20375;-65
2023/10/20 01:39:17;;;;;;;8.73;4.25;;;7.90;99.90;;;;;;5062591;28;20052;-66
2023/10/20 01:41:43;;;;;;;5.60;3.45;;;7.80;99.90;;;;;;5050067;28;20041;-66
2023/10/20 01:44:09;;;;;;;8.32;4.00;;;7.90;99.90;;;;;;5055868;28;20041;-67
2023/10/20 01:46:35;;;;;;;6.97;4.10;;;7.80;99.90;;;;;;5064852;28;20056;-66
2023/10/20 01:49:00;;;;;;;8.63;4.70;;;7.80;99.90;;;;;;5048221;28;20099;-65
2023/10/20 01:51:26;;;;;;;6.35;4.00;;;7.80;99.90;;;;;;5025913;28;20055;-66
2023/10/20 01:53:52;;;;;;;6.35;4.45;;;7.80;99.90;;;;;;5042692;28;20047;-66
2023/10/20 01:56:18;;;;;;;8.00;4.55;;;7.80;99.90;;;;;;5067602;28;20097;-66
2023/10/20 01:58:43;;;;;;;8.07;4.97;;;7.80;99.90;;;;;;5062778;28;20208;-65
2023/10/20 02:01:09;;;;;;;13.23;6.03;;;7.80;99.90;;;;;;5045785;28;20040;-66
2023/10/20 02:03:36;;;;;;;9.25;4.82;;;7.70;99.90;;;;;;5064790;28;20549;-66
2023/10/20 02:06:03;;;;;;;8.57;5.03;;;7.70;99.90;;;;;;5066400;28;20119;-69
2023/10/20 02:08:29;;;;;;;9.85;5.20;;;7.70;99.90;;;;;;5065532;28;20041;-66
2023/10/20 02:10:55;;;;;;;10.65;5.32;;;7.70;99.90;;;;;;5050647;28;20039;-66
2023/10/20 02:13:20;;;;;;;12.02;5.28;;;7.70;99.90;;;;;;5067805;28;20480;-65
2023/10/20 02:15:47;;;;;;;6.85;4.53;;;7.70;99.90;;;;;;5049387;28;20084;-67
2023/10/20 02:18:13;;;;;;;8.15;4.97;;;7.70;99.90;;;;;;5066807;28;20120;-66
2023/10/20 02:20:39;;;;;;;8.75;5.00;;;7.60;99.90;;;;;;5044169;28;20059;-66
2023/10/20 02:23:04;;;;;;;9.20;4.82;;;7.70;99.90;;;;;;5048197;28;20056;-66
2023/10/20 02:25:31;;;;;;;8.75;5.25;;;7.60;99.90;;;;;;5067718;28;20123;-66
2023/10/20 02:27:56;;;;;;;7.53;5.25;;;7.70;99.90;;;;;;5048346;28;20032;-66
2023/10/20 02:30:23;;;;;;;10.60;6.47;;;7.60;99.90;;;;;;5048242;28;20506;-66
2023/10/20 02:32:48;;;;;;;8.38;4.95;;;7.70;99.90;;;;;;5065315;28;20052;-65
2023/10/20 02:35:14;;;;;;;7.72;4.60;;;7.60;99.90;;;;;;5066872;28;20058;-66
2023/10/20 02:37:40;;;;;;;8.90;5.05;;;7.70;99.90;;;;;;5067937;28;20125;-65
2023/10/20 02:40:06;;;;;;;6.10;4.63;;;7.70;99.90;;;;;;5024555;28;20088;-66
2023/10/20 02:42:32;;;;;;;7.47;5.18;;;7.70;99.90;;;;;;5051244;28;20072;-66
2023/10/20 02:44:58;;;;;;;7.57;5.00;;;7.60;99.90;;;;;;5066402;28;20036;-66
2023/10/20 02:47:24;;;;;;;10.88;5.50;;;7.70;99.90;;;;;;5067478;28;20048;-65
2023/10/20 02:49:55;;;;;;;9.18;4.20;;;7.60;99.90;;;;;;5066122;28;20425;-65
2023/10/20 02:52:22;;;;;;;11.32;4.57;;;7.70;99.90;;;;;;5054581;28;20055;-66
2023/10/20 02:54:53;;;;;;;13.18;4.85;;;7.60;99.90;;;;;;5067094;28;20044;-65
2023/10/20 02:57:20;;;;;;;;;;;7.60;99.90;;;;;;5069640;28;20107;-65
2023/10/20 02:59:47;;;;;;;6.65;3.38;;;7.60;99.90;;;;;;5071193;28;19924;-66
2023/10/20 03:02:15;;;;;;;6.97;4.07;;;7.60;99.90;;;;;;5059468;28;20049;-65
2023/10/20 03:04:41;;;;;;;5.93;3.92;;;7.60;99.90;;;;;;5059344;28;20075;-65
2023/10/20 03:07:08;;;;;;;9.45;4.85;;;7.60;99.90;;;;;;5070249;28;20049;-65
2023/10/20 03:09:35;;;;;;;8.77;4.25;;;7.60;99.90;;;;;;5064427;28;20075;-65
2023/10/20 03:12:02;;;;;;;5.13;3.58;;;7.60;99.90;;;;;;5052281;28;20486;-65
2023/10/20 03:14:27;;;;;;;8.75;4.53;;;7.60;99.90;;;;;;5068819;28;20097;-65
2023/10/20 03:16:53;;;;;;;5.93;3.75;;;7.70;99.90;;;;;;5070987;28;20044;-65
2023/10/20 03:19:19;;;;;;;5.25;3.90;;;7.70;99.90;;;;;;5069828;28;20045;-65
2023/10/20 03:21:45;;;;;;;3.67;2.85;;;7.60;99.90;;;;;;5067399;28;20044;-65
2023/10/20 03:24:10;;;;;;;7.22;3.75;;;7.70;99.90;;;;;;5064241;28;20044;-65
2023/10/20 03:26:36;;;;;;;5.25;2.92;;;7.60;99.90;;;;;;5071110;28;20410;-65
2023/10/20 03:29:03;;;;;;;5.88;3.20;;;7.60;99.90;;;;;;5070276;28;20082;-65
2023/10/20 03:31:29;;;;;;;9.93;4.32;;;7.60;99.90;;;;;;5068831;28;20434;-65
2023/10/20 03:33:55;;;;;;;4.63;3.13;;;7.70;99.90;;;;;;5057401;28;20116;-65
2023/10/20 03:36:21;;;;;;;6.47;3.33;;;7.60;99.90;;;;;;5066011;28;20033;-65
2023/10/20 03:38:49;;;;;;;8.15;3.53;;;7.60;99.90;;;;;;5061677;28;20128;-65
2023/10/20 03:41:15;;;;;;;5.78;3.10;;;7.60;99.90;;;;;;5064560;28;20091;-65
2023/10/20 03:43:41;;;;;;;5.82;3.47;;;7.60;99.90;;;;;;5067879;28;20112;-65
2023/10/20 03:46:07;;;;;;;5.40;3.03;;;7.60;99.90;;;;;;5069269;28;20561;-65
2023/10/20 03:48:35;;;;;;;5.18;2.42;;;7.60;99.90;;;;;;5070155;28;20109;-65
2023/10/20 03:51:04;;;;;;;4.60;2.75;;;7.60;99.90;;;;;;5070335;28;20041;-65
2023/10/20 03:56:01;;;;;;;3.13;2.20;;;7.60;99.90;;;;;;5039889;28;20482;-65
2023/10/20 03:58:31;;;;;;;3.55;2.65;;;7.60;99.90;;;;;;5051163;28;22070;-65
2023/10/20 04:01:02;;;;;;;6.20;2.63;;;7.70;99.90;;;;;;5047468;28;20071;-65
2023/10/20 04:03:30;;;;;;;3.58;2.25;;;7.60;99.90;;;;;;5047212;28;20045;-65
2023/10/20 04:05:55;;;;;;;3.60;1.90;;;7.60;99.90;;;;;;5039197;28;20036;-65
2023/10/20 04:08:23;;;;;;;1.98;1.88;;;7.60;99.90;;;;;;5032646;28;20135;-65
2023/10/20 04:10:59;;;;;;;2.20;2.00;;;7.60;99.90;;;;;;5032214;28;20053;-65
2023/10/20 04:13:24;;;;;;;3.30;2.17;;;7.70;99.90;;;;;;5051152;28;20386;-65
2023/10/20 04:15:52;;;;;;;4.00;2.15;;;7.70;99.90;;;;;;5022107;28;20046;-65
2023/10/20 04:18:19;;;;;;;3.83;2.17;;;7.60;99.90;;;;;;5038549;28;20056;-66
2023/10/20 04:20:48;;;;;;;3.00;2.25;;;7.70;99.90;;;;;;5050274;28;20048;-65
2023/10/20 04:23:15;;;;;;;4.25;2.25;;;7.70;99.90;;;;;;5049563;28;20088;-65
2023/10/20 04:25:52;;;;;;;2.72;2.13;;;7.60;99.90;;;;;;5039060;28;20060;-65
2023/10/20 04:28:32;;;;;;;3.38;1.77;;;7.60;99.90;;;;;;5023247;28;20049;-65
2023/10/20 04:54:45;;;;;;;2.05;1.70;;;7.70;99.90;;;;;;5049643;28;20065;-65
2023/10/20 04:59:44;;;;;;;2.78;1.52;;;7.70;99.90;;;;;;5042708;28;20516;-65
2023/10/20 05:02:23;;;;;;;1.85;1.42;;;7.70;99.90;;;;;;5024602;28;20534;-65
2023/10/20 05:04:51;;;;;;;1.57;1.33;;;7.80;99.90;;;;;;5021994;28;20384;-65
2023/10/20 05:07:21;;;;;;;1.48;1.42;;;7.70;99.90;;;;;;5025152;28;20693;-65
2023/10/20 05:09:54;;;;;;;2.22;1.50;;;7.70;99.90;;;;;;5026492;28;20116;-65
2023/10/20 05:12:20;;;;;;;2.90;1.35;;;7.70;99.90;;;;;;5024027;28;20091;-65
2023/10/20 05:14:49;;;;;;;2.60;1.33;;;7.70;99.90;;;;;;5025703;28;20033;-65
2023/10/20 05:17:17;;;;;;;1.20;1.10;;;7.70;99.90;;;;;;5000733;28;20084;-65
2023/10/20 05:19:43;;;;;;;1.52;0.95;;;7.80;99.90;;;;;;5026779;28;20041;-65
2023/10/20 05:22:09;;;;;;;2.50;2.03;;;7.70;99.90;;;;;;5027840;28;20488;-65
2023/10/20 05:24:35;;;;;;;3.83;1.08;;;7.70;99.90;;;;;;5028301;28;20077;-65
2023/10/20 05:27:01;;;;;;;2.75;1.30;;;7.80;99.90;;;;;;5019123;28;20069;-65
2023/10/20 05:29:27;;;;;;;0.60;0.60;;;7.80;99.90;;;;;;5006027;28;20547;-65
2023/10/20 05:31:53;;;;;;;0.63;0.60;;;7.80;99.90;;;;;;5026286;28;20050;-65
2023/10/20 05:34:19;;;;;;;1.73;0.80;;;7.80;99.90;;;;;;5009838;28;20132;-65
2023/10/20 05:36:45;;;;;;;0.70;0.70;;;7.70;99.90;;;;;;5009176;28;20124;-64
2023/10/20 05:39:13;;;;;;;0.70;0.70;;;7.70;99.90;;;;;;5026417;28;20502;-65
2023/10/20 05:41:40;;;;;;;2.13;0.77;;;7.70;99.90;;;;;;5027486;28;20052;-65
2023/10/20 05:44:06;;;;;;;1.55;0.70;;;7.70;99.90;;;;;;5009193;28;20509;-65
2023/10/20 05:46:32;;;;;;;3.08;1.00;;;7.70;99.90;;;;;;5009668;28;20506;-65
2023/10/20 05:48:58;;;;;;;2.25;0.70;;;7.70;99.90;;;;;;5025418;28;20080;-65
2023/10/20 05:51:23;;;;;;;0.82;0.80;;;7.70;99.90;;;;;;5028070;28;20117;-65
2023/10/20 05:53:49;;;;;;;5.15;1.45;;;7.70;99.90;;;;;;5026116;28;20482;-65
2023/10/20 05:56:15;;;;;;;6.03;1.23;;;7.60;99.90;;;;;;5027063;28;20085;-65
2023/10/20 05:58:41;;;;;;;0.80;0.80;;;7.60;99.90;;;;;;5025006;28;20041;-65
2023/10/20 06:01:09;;;;;;;2.42;1.00;;;7.60;99.90;;;;;;4992043;28;20080;-65
2023/10/20 06:03:35;;;;;;;1.42;0.90;;;7.60;99.90;;;;;;5008779;28;20447;-64
2023/10/20 06:06:03;;;;;;;0.75;0.75;;;7.60;99.90;;;;;;5025345;28;20049;-65
2023/10/20 06:08:29;;;;;;;2.78;1.05;;;7.60;99.90;;;;;;5027485;28;20041;-65
2023/10/20 06:11:03;;;;;;;3.22;1.10;;;7.60;99.90;;;;;;5029105;28;20039;-65
2023/10/20 06:13:34;;;;;;;0.70;0.70;;;7.50;99.90;;;;;;5048088;28;20045;-65
2023/10/20 06:16:10;;;;;;;1.20;1.10;;;7.60;99.90;;;;;;5028202;28;20529;-65
2023/10/20 06:18:39;;;;;;;0.80;0.77;;;7.50;99.90;;;;;;5047083;28;20608;-65
2023/10/20 06:21:07;;;;;;;0.70;0.70;;;7.50;99.90;;;;;;5018562;28;20041;-65
2023/10/20 06:23:32;;;;;;;1.42;1.35;;;7.50;99.90;;;;;;5018134;28;20052;-65
2023/10/20 06:25:59;;;;;;;2.47;0.93;;;7.50;99.90;;;;;;5047398;28;20075;-65
2023/10/20 06:28:24;;;;;;;2.15;0.93;;;7.50;99.90;;;;;;5028222;28;20049;-65
2023/10/20 06:30:51;;;;;;;3.55;1.17;;;7.50;99.90;;;;;;5028250;28;20554;-65
2023/10/20 06:33:17;;;;;;;1.50;0.90;;;7.50;99.90;;;;;;5045427;28;20075;-65
2023/10/20 06:35:51;;;;;;;1.20;1.10;;;7.50;99.90;;;;;;5029595;28;20052;-65
2023/10/20 06:39:05;;;;;;;3.25;1.10;;;7.40;99.90;;;;;;5046880;28;20037;-65
2023/10/20 06:41:14;;;;;;;0.80;0.80;;;7.40;99.90;;;;;;5013826;28;20076;-65
2023/10/20 06:43:40;;;;;;;0.80;0.80;;;7.50;99.90;;;;;;5047044;28;20107;-65
2023/10/20 06:46:06;;;;;;;3.53;0.70;;;7.40;99.90;;;;;;5045694;28;20589;-65
2023/10/20 06:48:32;;;;;;;1.25;1.15;;;7.40;99.90;;;;;;5046991;28;20072;-66
2023/10/20 06:50:58;;;;;;;1.10;1.00;;;7.40;99.90;;;;;;5035469;28;20052;-65
2023/10/20 06:53:25;;;;;;;1.52;0.77;;;7.40;99.90;;;;;;5043174;28;20522;-65
2023/10/20 06:55:51;;;;;;;0.95;0.60;;;7.40;99.90;;;;;;5047035;28;20574;-65
2023/10/20 06:58:17;;;;;;;1.27;0.75;;;7.40;99.90;;;;;;5044993;28;20498;-65
2023/10/20 07:00:47;;;;;;;1.50;0.90;;;7.40;99.90;;;;;;5041569;28;20411;-65
2023/10/20 07:03:13;;;;;;;2.00;0.75;;;7.40;99.90;;;;;;5024197;28;20053;-65
2023/10/20 07:05:40;;;;;;;0.93;0.90;;;7.40;99.90;;;;;;5027009;28;20095;-65
2023/10/20 07:08:07;;;;;;;0.70;0.70;;;7.40;99.90;;;;;;5008967;28;20052;-65
2023/10/20 07:10:37;;;;;;;0.73;0.73;;;7.40;99.90;;;;;;5001373;28;20448;-65
2023/10/20 07:13:08;;;;;;;0.60;0.60;;;7.40;99.90;;;;;;5026652;28;20046;-65
2023/10/20 07:15:38;;;;;;;0.57;0.57;;;7.30;99.90;;;;;;5025561;28;20049;-66
2023/10/20 07:18:05;;;;;;;1.20;1.10;;;7.40;99.90;;;;;;5026878;28;20049;-65
2023/10/20 07:20:32;;;;;;;1.35;0.98;;;7.30;99.90;;;;;;5005847;28;20045;-65
2023/10/20 07:22:58;;;;;;;0.93;0.75;;;7.30;99.90;;;;;;4999687;28;20391;-65
2023/10/20 07:25:24;;;;;;;3.60;0.93;;;7.40;99.90;;;;;;5016677;28;20054;-65
2023/10/20 07:27:50;;;;;;;3.80;0.88;;;7.30;99.90;;;;;;5007215;28;20045;-65
2023/10/20 07:30:18;;;;;;;0.75;0.47;;;7.30;99.90;;;;;;5026765;28;20033;-65
2023/10/20 07:32:44;;;;;;;1.85;0.98;;;7.30;99.90;;;;;;5004305;28;20121;-66
2023/10/20 07:35:11;;;;;;;1.00;0.90;;;7.30;99.90;;;;;;5027082;28;20133;-65
2023/10/20 07:37:38;;;;;;;0.77;0.77;;;7.20;99.90;;;;;;5025502;28;20045;-66
2023/10/20 07:40:07;;;;;;;2.22;0.70;;;7.20;99.90;;;;;;5008916;28;20053;-65
2023/10/20 07:42:33;;;;;;;0.80;0.80;;;7.30;99.90;;;;;;5005510;28;20408;-65
2023/10/20 07:45:00;;;;;;;0.68;0.57;;;7.30;99.90;;;;;;5027796;28;20077;-65
2023/10/20 07:47:27;;;;;;;0.82;0.75;;;7.30;99.90;;;;;;5035167;28;20099;-65
2023/10/20 07:49:52;;;;;;;0.85;0.85;;;7.30;99.90;;;;;;5032767;28;20084;-65
2023/10/20 07:52:19;;;;;;;1.00;0.93;;;7.20;99.90;;;;;;5012174;28;20092;-65
2023/10/20 07:54:45;;;;;;;1.55;0.88;;;7.20;99.90;;;;;;5028456;28;20057;-65
2023/10/20 07:57:13;;;;;;;0.88;0.85;;;7.30;99.90;;;;;;5029044;28;20503;-65
2023/10/20 07:59:39;;;;;;;0.52;0.52;;;7.20;99.90;;;;;;5028906;28;20462;-65
2023/10/20 08:02:05;;;;;;;1.85;0.80;;;7.20;99.90;;;;;;5029445;28;20049;-66
2023/10/20 08:04:32;;;;;;;0.60;0.60;;;7.20;99.90;;;;;;5029088;28;20112;-65
2023/10/20 08:06:59;;;;;;;0.82;0.82;;;7.20;99.90;;;;;;5030500;28;20450;-65
2023/10/20 08:09:27;;;;;;;0.63;0.63;;;7.20;99.90;;;;;;5018551;28;20541;-65
2023/10/20 08:11:53;;;;;;;1.27;0.90;;;7.20;99.90;;;;;;5022106;28;20040;-65
2023/10/20 08:14:20;;;;;;;2.72;0.80;;;7.30;99.90;;;;;;5028147;28;20910;-65
2023/10/20 08:16:47;;;;;;;0.93;0.80;;;7.20;99.90;;;;;;5038284;28;20718;-65
2023/10/20 08:19:13;;;;;;;4.43;0.73;;;7.20;99.90;;;;;;5004253;28;20045;-65
2023/10/20 08:21:39;;;;;;;0.75;0.60;;;7.20;99.90;;;;;;5028638;28;20095;-65
2023/10/20 08:24:06;;;;;;;1.00;0.65;;;7.30;99.90;;;;;;5042869;28;20056;-65
2023/10/20 08:26:32;;;;;;;0.88;0.63;;;7.20;99.90;;;;;;5031472;28;20056;-65
2023/10/20 08:28:58;;;;;;;0.60;0.60;;;7.30;99.90;;;;;;5039140;28;20038;-66
2023/10/20 08:31:25;;;;;;;1.33;0.52;;;7.30;99.90;;;;;;5004565;28;20581;-65
2023/10/20 08:33:52;;;;;;;1.75;0.60;;;7.30;99.90;;;;;;5035665;28;20044;-65
2023/10/20 08:36:22;;;;;;;0.45;0.45;;;7.20;99.90;;;;;;5049462;28;20048;-65
2023/10/20 08:38:49;;;;;;;1.63;0.50;;;7.20;99.90;;;;;;5030856;28;20060;-65
2023/10/20 08:41:21;;;;;;;0.57;0.57;;;7.10;99.90;;;;;;5043768;28;20127;-65
2023/10/20 08:43:48;;;;;;;3.72;0.90;;;7.20;99.90;;;;;;5049620;28;20055;-65
2023/10/20 08:46:16;;;;;;;0.40;0.40;;;7.10;99.90;;;;;;5047830;28;20049;-66
2023/10/20 08:48:43;;;;;;;0.40;0.40;;;7.10;99.90;;;;;;5020280;28;20482;-65
2023/10/20 08:51:11;;;;;;;1.38;0.70;;;7.10;99.90;;;;;;5028600;28;20087;-65
2023/10/20 08:53:37;;;;;;;2.28;0.90;;;7.00;99.90;;;;;;5043604;28;20080;-66
2023/10/20 08:56:05;;;;;;;1.88;0.55;;;7.00;99.90;;;;;;5046471;28;20056;-65
2023/10/20 08:58:31;;;;;;;1.20;0.93;;;7.00;99.90;;;;;;5046120;28;20128;-65
2023/10/20 09:00:58;;;;;;;0.70;0.70;;;7.00;99.90;;;;;;5026812;28;20054;-65
2023/10/20 09:03:25;;;;;;;1.27;0.90;;;7.00;99.90;;;;;;5010554;28;20049;-66
2023/10/20 09:06:14;;;;;;;1.45;0.70;;;7.00;99.90;;;;;;5017884;28;20080;-66
2023/10/20 09:08:47;;;;;;;4.35;1.08;;;7.00;99.90;;;;;;5047332;28;20041;-66
2023/10/20 09:11:13;;;;;;;5.13;0.90;;;7.00;99.90;;;;;;5022508;28;20042;-65
2023/10/20 09:13:40;;;;;;;1.55;1.00;;;7.00;99.90;;;;;;5007977;28;20057;-65
2023/10/20 09:16:10;;;;;;;0.75;0.73;;;6.90;99.90;;;;;;5045650;28;20397;-65
2023/10/20 09:18:51;;;;;;;0.50;0.50;;;7.00;99.90;;;;;;5048069;28;20044;-65
2023/10/20 09:21:21;;;;;;;1.23;0.50;;;7.00;99.90;;;;;;5041474;28;20038;-65
2023/10/20 09:23:58;;;;;;;1.33;0.65;;;7.00;99.90;;;;;;5039745;28;20036;-66
2023/10/20 09:26:26;;;;;;;3.25;0.82;;;7.00;99.90;;;;;;5030149;28;20053;-66
2023/10/20 09:28:53;;;;;;;0.70;0.45;;;6.90;99.90;;;;;;5038771;28;20049;-66
2023/10/20 09:31:20;;;;;;;1.48;0.80;;;6.90;99.90;;;;;;5046678;28;20425;-66
2023/10/20 09:33:46;;;;;;;0.60;0.60;;;6.90;99.90;;;;;;5017606;28;20045;-66
2023/10/20 09:36:12;;;;;;;0.90;0.70;;;6.90;99.90;;;;;;5044304;28;20521;-66
2023/10/20 09:38:39;;;;;;;4.53;0.75;;;6.90;99.90;;;;;;5046593;28;20044;-66
2023/10/20 09:41:13;;;;;;;3.17;0.40;;;6.90;99.90;;;;;;5048348;28;20052;-66
2023/10/20 09:43:48;;;;;;;2.17;0.80;;;6.90;99.90;;;;;;5030645;28;20064;-66
2023/10/20 09:46:35;;;;;;;0.77;0.57;;;6.90;99.90;;;;;;5040955;28;20041;-66
2023/10/20 09:49:14;;;;;;;3.33;0.88;;;6.90;99.90;;;;;;5048180;28;20037;-66
2023/10/20 09:51:45;;;;;;;1.55;0.70;;;6.90;99.90;;;;;;5028628;28;20059;-66
2023/10/20 09:54:16;;;;;;;3.60;0.60;;;6.80;99.90;;;;;;5029931;28;20096;-66
2023/10/20 09:56:44;;;;;;;1.67;0.60;;;6.90;99.90;;;;;;5043566;28;20495;-65
2023/10/20 09:59:15;;;;;;;0.65;0.65;;;6.90;99.90;;;;;;5046727;28;20471;-66
2023/10/20 10:01:43;;;;;;;0.73;0.63;;;6.80;99.90;;;;;;5041063;28;20124;-66
2023/10/20 10:04:10;;;;;;;5.05;0.60;;;6.80;99.90;;;;;;5041746;28;20053;-66
2023/10/20 10:06:37;;;;;;;0.73;0.40;;;6.80;99.90;;;;;;5047121;28;20052;-65
2023/10/20 10:09:04;;;;;;;1.17;0.60;;;6.80;99.90;;;;;;5009995;28;20048;-65
2023/10/20 10:11:31;;;;;;;2.65;0.50;;;6.70;99.90;;;;;;5019615;28;20765;-65
2023/10/20 10:14:02;;;;;;;2.00;0.70;;;6.80;99.90;;;;;;5036457;28;20041;-65
2023/10/20 10:16:29;;;;;;;1.02;0.60;;;6.80;99.90;;;;;;5040224;28;20049;-65
2023/10/20 10:19:05;;;;;;;2.65;0.68;;;6.80;99.90;;;;;;5047172;28;20052;-65
2023/10/20 10:21:30;;;;;;;0.75;0.40;;;6.70;99.90;;;;;;5014937;28;20069;-65
2023/10/20 10:24:08;;;;;;;1.02;0.47;;;6.80;99.90;;;;;;5027134;28;20089;-65
2023/10/20 10:26:34;;;;;;;1.13;0.60;;;6.90;99.90;;;;;;5013767;28;20088;-65
2023/10/20 10:29:00;;;;;;;0.63;0.45;;;6.80;99.90;;;;;;5027242;28;20065;-66
2023/10/20 10:31:38;;;;;;;2.90;0.60;;;6.80;99.90;;;;;;5027098;28;20462;-65
2023/10/20 10:34:07;;;;;;;1.30;0.50;;;6.80;99.90;;;;;;5025951;28;20131;-66
2023/10/20 10:36:46;;;;;;;1.88;0.38;;;6.70;99.90;;;;;;5025499;28;20044;-65
2023/10/20 10:39:27;;;;;;;0.73;0.30;;;6.80;99.90;;;;;;5026198;28;20099;-65
2023/10/20 10:41:54;;;;;;;1.55;0.30;;;6.80;99.90;;;;;;5026665;28;20056;-65
2023/10/20 10:44:23;;;;;;;0.20;0.20;;;6.80;99.90;;;;;;5009417;28;20049;-66
2023/10/20 10:46:51;;;;;;;0.43;0.30;;;6.90;99.90;;;;;;5023968;28;20083;-65
2023/10/20 10:49:18;;;;;;;1.27;0.45;;;6.80;99.90;;;;;;5013914;28;20053;-66
2023/10/20 10:51:48;;;;;;;2.05;0.43;;;6.80;99.90;;;;;;5006802;28;20048;-66
2023/10/20 10:54:14;;;;;;;10.15;0.60;;;6.80;99.90;;;;;;5044577;28;20528;-65
2023/10/20 10:56:44;;;;;;;0.38;0.38;;;6.80;99.90;;;;;;5014506;28;20041;-65
2023/10/20 10:59:11;;;;;;;0.32;0.30;;;6.90;99.90;;;;;;5018492;28;20100;-65
2023/10/20 11:01:40;;;;;;;0.30;0.30;;;6.80;99.90;;;;;;5008587;28;20395;-65
2023/10/20 11:04:09;;;;;;;8.55;0.63;;;6.90;99.90;;;;;;5026103;28;20053;-65
2023/10/20 11:06:39;;;;;;;1.23;0.70;;;6.90;99.90;;;;;;5026712;28;20377;-65
2023/10/20 11:09:13;;;;;;;1.77;0.50;;;6.90;99.90;;;;;;5024343;28;20463;-66
2023/10/20 11:11:45;;;;;;;2.53;0.28;;;6.80;99.90;;;;;;5029565;28;20044;-66
2023/10/20 11:14:23;;;;;;;0.20;0.20;;;6.90;99.90;;;;;;5031632;28;20040;-65
2023/10/20 11:16:49;;;;;;;2.05;0.52;;;6.80;99.90;;;;;;5045107;28;20044;-66
2023/10/20 11:19:15;;;;;;;1.95;0.43;;;6.80;99.90;;;;;;5030673;28;20059;-66
2023/10/20 11:21:45;;;;;;;0.40;0.40;;;6.80;99.90;;;;;;5031910;28;20124;-66
2023/10/20 11:24:22;;;;;;;0.55;0.35;;;6.80;99.90;;;;;;5046364;28;20087;-66
2023/10/20 11:27:05;;;;;;;1.15;0.50;;;6.90;99.90;;;;;;5049105;28;20441;-66
2023/10/20 11:29:32;;;;;;;0.95;0.52;;;6.90;99.90;;;;;;5015366;28;20388;-66
2023/10/20 11:32:06;;;;;;;1.42;0.40;;;6.90;99.90;;;;;;5034577;28;20166;-66
2023/10/20 11:34:33;;;;;;;3.42;0.57;;;6.90;99.90;;;;;;5045206;28;20052;-66
2023/10/20 11:37:00;;;;;;;3.03;0.60;;;6.80;99.90;;;;;;5050228;28;20049;-66
2023/10/20 11:39:27;;;;;;;0.20;0.20;;;6.70;99.90;;;;;;5048343;28;20045;-66
2023/10/20 11:41:56;;;;;;;3.30;0.38;;;6.70;99.90;;;;;;5046497;28;20073;-66
2023/10/20 11:44:24;;;;;;;2.30;0.38;;;6.70;99.90;;;;;;5050045;28;20045;-66
2023/10/20 11:46:56;;;;;;;1.65;0.50;;;6.70;99.90;;;;;;5049571;28;20045;-66
2023/10/20 11:49:26;;;;;;;5.32;0.50;;;6.80;99.90;;;;;;5028748;28;20104;-66
2023/10/20 11:51:53;;;;;;;0.98;0.63;;;6.80;99.90;;;;;;5030685;28;20048;-66
2023/10/20 11:54:19;;;;;;;2.45;0.57;;;6.80;99.90;;;;;;5050392;28;20124;-66
2023/10/20 11:56:45;;;;;;;5.97;0.68;;;6.80;99.90;;;;;;5035038;28;21014;-66
2023/10/20 11:59:15;;;;;;;2.92;0.40;;;6.80;99.90;;;;;;5014378;28;20419;-66
2023/10/20 12:01:41;;;;;;;1.23;0.32;;;6.80;99.90;;;;;;5020148;28;20041;-66
2023/10/20 12:04:08;;;;;;;3.20;0.68;;;6.80;99.90;;;;;;5049266;28;20132;-66
2023/10/20 12:06:37;;;;;;;1.33;0.60;;;6.70;99.90;;;;;;5031955;28;20137;-66
2023/10/20 12:09:16;;;;;;;0.90;0.40;;;6.70;99.90;;;;;;5045567;28;20041;-66
2023/10/20 12:11:42;;;;;;;0.43;0.43;;;6.70;99.90;;;;;;4995982;28;20065;-66
2023/10/20 12:14:09;;;;;;;0.22;0.22;;;6.70;99.90;;;;;;5044149;28;20060;-66
2023/10/20 12:16:34;;;;;;;1.38;0.40;;;6.80;99.90;;;;;;5049982;28;20409;-66
2023/10/20 12:19:06;;;;;;;4.50;0.52;;;6.60;99.90;;;;;;5048462;28;20127;-66
2023/10/20 12:21:32;;;;;;;2.15;0.40;;;6.80;99.90;;;;;;5018350;28;20519;-65
2023/10/20 12:23:58;;;;;;;1.20;0.50;;;6.80;99.90;;;;;;5041359;28;20083;-66
2023/10/20 12:26:24;;;;;;;0.50;0.40;;;6.80;99.90;;;;;;5048250;28;20049;-65
2023/10/20 12:28:50;;;;;;;0.22;0.22;;;6.70;99.90;;;;;;5048477;28;20510;-65
2023/10/20 12:31:17;;;;;;;2.65;0.47;;;6.80;99.90;;;;;;5027365;28;20056;-66
2023/10/20 12:33:45;;;;;;;2.20;0.47;;;6.80;99.90;;;;;;5009890;28;20077;-65
2023/10/20 12:36:16;;;;;;;1.08;0.35;;;6.70;99.90;;;;;;5043790;28;20076;-66
2023/10/20 12:38:45;;;;;;;0.60;0.30;;;6.80;99.90;;;;;;5049281;28;20040;-65
2023/10/20 12:41:14;;;;;;;1.02;0.32;;;6.70;99.90;;;;;;5034456;28;20057;-65
2023/10/20 12:43:41;;;;;;;0.25;0.22;;;6.70;99.90;;;;;;5017483;28;20490;-65
2023/10/20 12:46:07;;;;;;;1.85;0.32;;;6.80;99.90;;;;;;5048754;28;20474;-65
2023/10/20 12:48:36;;;;;;;1.80;0.70;;;6.70;99.90;;;;;;5013175;28;20041;-65
2023/10/20 12:51:11;;;;;;;0.43;0.43;;;6.80;99.90;;;;;;5044112;28;20135;-65
2023/10/20 12:53:38;;;;;;;0.30;0.30;;;6.80;99.90;;;;;;5014078;28;20088;-65
2023/10/20 12:56:05;;;;;;;1.65;0.20;;;6.70;99.90;;;;;;5029609;28;20100;-65
2023/10/20 12:58:38;;;;;;;0.22;0.22;;;6.90;99.90;;;;;;5033210;28;20160;-64
2023/10/20 13:01:04;;;;;;;0.57;0.25;;;6.80;99.90;;;;;;5008882;28;20099;-65
2023/10/20 13:03:30;;;;;;;0.93;0.20;;;6.80;99.90;;;;;;5028149;28;20046;-64
2023/10/20 13:05:57;;;;;;;1.02;0.25;;;6.90;99.90;;;;;;5014718;28;20045;-64
2023/10/20 13:08:24;;;;;;;0.63;0.25;;;6.80;99.90;;;;;;5028718;28;20077;-65
2023/10/20 13:10:50;;;;;;;0.50;0.30;;;6.90;99.90;;;;;;5011407;28;20041;-65
2023/10/20 13:13:17;;;;;;;2.65;0.20;;;6.80;99.90;;;;;;5026887;28;20096;-65
2023/10/20 13:15:43;;;;;;;1.45;0.32;;;6.90;99.90;;;;;;5029217;28;20056;-65
2023/10/20 13:18:12;;;;;;;4.53;0.25;;;6.90;99.90;;;;;;5008738;28;20054;-64
2023/10/20 13:20:39;;;;;;;3.65;0.40;;;6.80;99.90;;;;;;5028489;28;20099;-65
2023/10/20 13:23:05;;;;;;;0.60;0.10;;;6.80;99.90;;;;;;5008190;28;20057;-65
2023/10/20 13:25:32;;;;;;;5.82;0.47;;;6.80;99.90;;;;;;5028489;28;20081;-65
2023/10/20 13:27:59;;;;;;;2.65;0.50;;;6.80;99.90;;;;;;5027207;28;20131;-65
2023/10/20 13:30:25;;;;;;;2.70;0.47;;;6.80;99.90;;;;;;4986808;28;20068;-65